createdAt,value
2018-09-05T00:00:30.516Z,10.23
2018-09-05T00:02:34.940Z,10.90
2018-09-05T00:04:39.647Z,11.43
2018-09-05T00:06:44.041Z,10.33
2018-09-05T00:08:50.254Z,10.77
2018-09-05T00:10:55.443Z,11.03
2018-09-05T00:12:59.848Z,9.60
2018-09-05T00:15:04.115Z,9.80
2018-09-05T00:17:08.486Z,10.80
2018-09-05T00:19:13.071Z,9.07
2018-09-05T00:21:17.463Z,10.00
2018-09-05T00:23:21.702Z,8.17
2018-09-05T00:25:25.911Z,8.43
2018-09-05T00:27:30.098Z,7.83
2018-09-05T00:29:34.322Z,11.73
2018-09-05T00:31:38.926Z,10.83
2018-09-05T00:33:43.170Z,9.17
2018-09-05T00:35:47.349Z,9.17
2018-09-05T00:37:51.558Z,8.40
2018-09-05T00:39:55.747Z,8.53
2018-09-05T00:41:59.975Z,8.87
2018-09-05T00:44:04.384Z,9.07
2018-09-05T00:46:08.574Z,8.07
2018-09-05T00:48:12.797Z,7.40
2018-09-05T00:50:16.992Z,7.67
2018-09-05T00:52:21.243Z,9.00
2018-09-05T00:54:25.467Z,7.07
2018-09-05T00:56:29.780Z,8.27
2018-09-05T00:58:34.007Z,7.70
2018-09-05T01:00:38.205Z,9.30
2018-09-05T01:02:42.388Z,8.13
2018-09-05T01:04:46.715Z,8.93
2018-09-05T01:06:50.890Z,9.20
2018-09-05T01:08:55.098Z,6.77
2018-09-05T01:10:59.353Z,10.17
2018-09-05T01:13:03.689Z,10.70
2018-09-05T01:15:07.857Z,8.40
2018-09-05T01:17:12.411Z,6.90
2018-09-05T01:19:16.583Z,9.07
2018-09-05T01:21:20.827Z,8.50
2018-09-05T01:23:25.110Z,6.87
2018-09-05T01:25:29.286Z,7.50
2018-09-05T01:27:33.597Z,9.30
2018-09-05T01:29:39.035Z,8.53
2018-09-05T01:31:43.252Z,7.30
2018-09-05T01:33:47.425Z,7.47
2018-09-05T01:35:59.003Z,9.17
2018-09-05T01:38:03.162Z,8.50
2018-09-05T01:40:07.435Z,7.53
2018-09-05T01:42:11.891Z,13.07
2018-09-05T01:44:16.163Z,9.73
2018-09-05T01:46:34.531Z,9.50
2018-09-05T01:48:39.472Z,8.70
2018-09-05T01:50:44.122Z,10.03
2018-09-05T01:52:48.318Z,7.73
2018-09-05T01:54:52.558Z,7.53
2018-09-05T01:56:57.095Z,9.27
2018-09-05T01:59:01.281Z,11.03
2018-09-05T02:01:05.514Z,8.17
2018-09-05T02:03:09.770Z,8.90
2018-09-05T02:05:13.979Z,8.40
2018-09-05T02:07:18.279Z,9.87
2018-09-05T02:09:22.459Z,11.57
2018-09-05T02:11:26.682Z,9.37
2018-09-05T02:13:30.893Z,9.07
2018-09-05T02:15:35.085Z,8.73
2018-09-05T02:17:39.353Z,8.43
2018-09-05T02:19:43.505Z,6.27
2018-09-05T02:21:47.736Z,7.97
2018-09-05T02:23:51.911Z,7.63
2018-09-05T02:25:56.129Z,8.83
2018-09-05T02:28:00.854Z,7.37
2018-09-05T02:30:05.825Z,8.17
2018-09-05T02:32:10.027Z,9.53
2018-09-05T02:34:14.249Z,7.97
2018-09-05T02:36:18.526Z,8.13
2018-09-05T02:38:22.807Z,7.87
2018-09-05T02:40:27.012Z,9.00
2018-09-05T02:42:31.205Z,9.17
2018-09-05T02:44:35.474Z,6.70
2018-09-05T02:46:39.766Z,8.87
2018-09-05T02:48:43.965Z,9.37
2018-09-05T02:50:48.176Z,7.67
2018-09-05T02:52:52.379Z,8.73
2018-09-05T02:54:56.566Z,7.40
2018-09-05T02:57:00.877Z,9.67
2018-09-05T02:59:05.157Z,8.90
2018-09-05T03:01:09.394Z,9.27
2018-09-05T03:03:13.629Z,6.43
2018-09-05T03:05:18.221Z,8.03
2018-09-05T03:07:22.419Z,9.90
2018-09-05T03:09:26.790Z,8.30
2018-09-05T03:11:30.839Z,8.53
2018-09-05T03:13:35.077Z,8.13
2018-09-05T03:15:39.362Z,7.93
2018-09-05T03:17:43.610Z,9.20
2018-09-05T03:19:47.928Z,10.60
2018-09-05T03:21:52.095Z,9.27
2018-09-05T03:23:56.374Z,9.30
2018-09-05T03:26:00.546Z,7.60
2018-09-05T03:28:04.745Z,8.13
2018-09-05T03:30:08.971Z,8.67
2018-09-05T03:32:13.224Z,8.23
2018-09-05T03:34:17.370Z,10.03
2018-09-05T03:36:21.735Z,8.80
2018-09-05T03:38:25.938Z,9.33
2018-09-05T03:40:30.168Z,8.87
2018-09-05T03:42:34.422Z,8.90
2018-09-05T03:44:38.727Z,8.00
2018-09-05T03:46:42.915Z,7.73
2018-09-05T03:48:47.149Z,7.50
2018-09-05T03:50:57.704Z,11.27
2018-09-05T03:53:01.912Z,7.77
2018-09-05T03:55:06.241Z,7.87
2018-09-05T03:57:10.588Z,7.43
2018-09-05T03:59:14.799Z,8.00
2018-09-05T04:01:18.992Z,8.17
2018-09-05T04:03:23.245Z,10.10
2018-09-05T04:05:27.429Z,8.00
2018-09-05T04:07:31.832Z,9.73
2018-09-05T04:09:36.081Z,10.70
2018-09-05T04:11:40.351Z,10.47
2018-09-05T04:13:44.518Z,8.73
2018-09-05T04:15:48.711Z,10.43
2018-09-05T04:17:52.902Z,11.23
2018-09-05T04:19:57.126Z,8.93
2018-09-05T04:22:01.336Z,10.80
2018-09-05T04:24:05.563Z,8.53
2018-09-05T04:26:09.766Z,10.30
2018-09-05T04:28:14.111Z,10.50
2018-09-05T04:30:18.438Z,10.43
2018-09-05T04:32:22.679Z,9.63
2018-09-05T04:34:26.894Z,9.37
2018-09-05T04:36:31.098Z,10.73
2018-09-05T04:38:35.268Z,11.83
2018-09-05T04:40:39.451Z,12.10
2018-09-05T04:42:43.677Z,10.63
2018-09-05T04:44:47.971Z,11.50
2018-09-05T04:46:52.267Z,10.20
2018-09-05T04:48:56.445Z,10.70
2018-09-05T04:51:00.675Z,10.47
2018-09-05T04:53:04.908Z,11.03
2018-09-05T04:55:09.105Z,10.13
2018-09-05T04:57:14.223Z,9.67
2018-09-05T04:59:19.148Z,9.63
2018-09-05T05:01:23.570Z,8.93
2018-09-05T05:03:28.637Z,10.53
2018-09-05T05:05:33.130Z,8.97
2018-09-05T05:07:37.465Z,9.00
2018-09-05T05:09:41.724Z,10.10
2018-09-05T05:11:46.051Z,10.43
2018-09-05T05:13:50.241Z,11.07
2018-09-05T05:15:54.437Z,11.87
2018-09-05T05:17:58.628Z,9.73
2018-09-05T05:20:04.872Z,10.83
2018-09-05T05:22:09.047Z,10.50
2018-09-05T05:24:13.248Z,10.67
2018-09-05T05:26:17.461Z,10.67
2018-09-05T05:28:21.638Z,11.60
2018-09-05T05:30:25.869Z,13.97
2018-09-05T05:32:30.111Z,9.43
2018-09-05T05:34:34.338Z,12.93
2018-09-05T05:36:38.508Z,10.33
2018-09-05T05:38:42.918Z,11.63
2018-09-05T05:40:47.162Z,11.73
2018-09-05T05:42:51.318Z,11.83
2018-09-05T05:44:55.462Z,11.93
2018-09-05T05:46:59.722Z,12.70
2018-09-05T05:49:04.308Z,11.20
2018-09-05T05:51:08.618Z,11.17
2018-09-05T05:53:12.945Z,13.10
2018-09-05T05:55:17.130Z,12.60
2018-09-05T05:57:21.437Z,12.50
2018-09-05T05:59:25.685Z,10.13
2018-09-05T06:01:29.861Z,11.73
2018-09-05T06:03:34.110Z,11.20
2018-09-05T06:05:38.284Z,13.90
2018-09-05T06:07:42.535Z,14.53
2018-09-05T06:09:47.134Z,13.73
2018-09-05T06:11:51.403Z,16.10
2018-09-05T06:13:55.582Z,14.40
2018-09-05T06:15:59.792Z,14.10
2018-09-05T06:18:04.048Z,14.60
2018-09-05T06:20:08.432Z,14.30
2018-09-05T06:22:13.078Z,15.80
2018-09-05T06:24:17.432Z,16.27
2018-09-05T06:26:21.683Z,16.47
2018-09-05T06:28:25.904Z,16.57
2018-09-05T06:30:30.206Z,18.87
2018-09-05T06:32:34.480Z,14.87
2018-09-05T06:34:38.680Z,18.13
2018-09-05T06:36:42.889Z,17.80
2018-09-05T06:38:47.046Z,13.67
2018-09-05T06:40:51.286Z,14.33
2018-09-05T06:42:55.512Z,12.60
2018-09-05T06:44:59.799Z,13.83
2018-09-05T06:47:03.938Z,17.13
2018-09-05T06:49:08.274Z,20.50
2018-09-05T06:51:12.526Z,20.87
2018-09-05T06:53:17.206Z,17.90
2018-09-05T06:55:21.453Z,11.23
2018-09-05T06:57:25.855Z,20.57
2018-09-05T07:01:55.635Z,14.13
2018-09-05T07:03:59.933Z,16.43
2018-09-05T07:06:04.110Z,13.53
2018-09-05T07:08:08.432Z,17.03
2018-09-05T07:10:12.630Z,12.43
2018-09-05T07:12:16.878Z,10.50
2018-09-05T07:14:21.164Z,16.20
2018-09-05T07:16:25.349Z,14.57
2018-09-05T07:18:29.595Z,15.37
2018-09-05T07:20:33.924Z,18.03
2018-09-05T07:22:38.356Z,16.53
2018-09-05T07:24:42.626Z,17.73
2018-09-05T07:26:48.060Z,24.67
2018-09-05T07:28:52.239Z,19.27
2018-09-05T07:30:58.472Z,20.33
2018-09-05T07:33:03.492Z,14.57
2018-09-05T07:35:07.890Z,19.73
2018-09-05T07:37:12.083Z,14.27
2018-09-05T07:39:16.271Z,12.57
2018-09-05T07:41:20.583Z,13.17
2018-09-05T07:43:24.819Z,18.87
2018-09-05T07:45:29.168Z,15.47
2018-09-05T07:47:33.434Z,15.43
2018-09-05T07:49:37.695Z,13.70
2018-09-05T07:51:41.966Z,13.10
2018-09-05T07:53:46.219Z,11.03
2018-09-05T07:55:50.479Z,13.30
2018-09-05T07:57:54.781Z,12.20
2018-09-05T07:59:59.105Z,14.87
2018-09-05T08:02:03.266Z,14.60
2018-09-05T08:04:07.766Z,13.57
2018-09-05T08:06:11.947Z,15.03
2018-09-05T08:08:16.157Z,13.23
2018-09-05T08:10:20.725Z,22.23
2018-09-05T08:12:24.900Z,14.40
2018-09-05T08:14:29.070Z,17.47
2018-09-05T08:16:33.400Z,10.90
2018-09-05T08:18:37.556Z,18.37
2018-09-05T08:20:41.756Z,11.57
2018-09-05T08:22:46.032Z,11.53
2018-09-05T08:24:50.680Z,15.43
2018-09-05T08:26:54.861Z,14.53
2018-09-05T08:28:59.121Z,13.23
2018-09-05T08:31:03.409Z,17.03
2018-09-05T08:33:07.579Z,12.90
2018-09-05T08:35:12.052Z,17.50
2018-09-05T08:37:16.306Z,13.47
2018-09-05T08:39:20.308Z,13.70
2018-09-05T08:41:24.747Z,10.30
2018-09-05T08:43:28.857Z,9.40
2018-09-05T08:45:33.273Z,12.47
2018-09-05T08:47:37.325Z,13.33
2018-09-05T08:49:41.581Z,12.20
2018-09-05T08:51:45.875Z,13.20
2018-09-05T08:53:50.872Z,11.90
2018-09-05T08:55:55.344Z,11.20
2018-09-05T08:57:59.693Z,13.97
2018-09-05T09:00:04.060Z,16.53
2018-09-05T09:02:08.299Z,12.37
2018-09-05T09:04:12.532Z,12.93
2018-09-05T09:06:16.750Z,11.60
2018-09-05T09:08:20.971Z,10.63
2018-09-05T09:10:25.336Z,16.17
2018-09-05T09:12:29.646Z,8.03
2018-09-05T09:14:33.920Z,10.57
2018-09-05T09:16:38.287Z,10.43
2018-09-05T09:18:42.525Z,9.00
2018-09-05T09:20:46.666Z,9.07
2018-09-05T09:22:50.980Z,11.97
2018-09-05T09:24:55.188Z,9.13
2018-09-05T09:26:59.520Z,14.40
2018-09-05T09:29:03.719Z,8.20
2018-09-05T09:31:08.167Z,12.53
2018-09-05T09:33:12.391Z,9.27
2018-09-05T09:35:16.586Z,9.47
2018-09-05T09:37:20.816Z,9.93
2018-09-05T09:39:25.038Z,9.30
2018-09-05T09:41:29.254Z,7.10
2018-09-05T09:43:33.524Z,6.93
2018-09-05T09:45:37.731Z,9.93
2018-09-05T09:47:41.960Z,8.53
2018-09-05T09:49:46.204Z,9.20
2018-09-05T09:51:50.523Z,10.03
2018-09-05T09:53:55.218Z,7.97
2018-09-05T09:55:59.400Z,8.27
2018-09-05T09:58:03.600Z,7.73
2018-09-05T10:00:08.379Z,9.10
2018-09-05T10:02:17.894Z,7.93
2018-09-05T10:04:27.346Z,13.37
2018-09-05T10:06:36.648Z,6.83
2018-09-05T10:08:46.072Z,6.93
2018-09-05T10:10:55.371Z,12.30
2018-09-05T10:14:02.375Z,10.00
2018-09-05T10:16:11.645Z,9.43
2018-09-05T10:18:20.910Z,8.60
2018-09-05T10:20:25.317Z,7.00
2018-09-05T10:22:30.040Z,7.67
2018-09-05T10:24:34.234Z,9.93
2018-09-05T10:26:38.519Z,13.10
2018-09-05T10:28:42.735Z,6.87
2018-09-05T10:30:47.155Z,8.37
2018-09-05T10:32:51.380Z,5.87
2018-09-05T10:34:56.315Z,10.47
2018-09-05T10:37:00.645Z,8.97
2018-09-05T10:39:06.764Z,6.50
2018-09-05T10:41:10.923Z,6.10
2018-09-05T10:43:15.143Z,6.33
2018-09-05T10:45:19.394Z,8.80
2018-09-05T10:47:23.627Z,6.43
2018-09-05T10:49:27.769Z,8.27
2018-09-05T10:51:37.005Z,6.37
2018-09-05T10:53:41.375Z,7.80
2018-09-05T10:55:45.600Z,5.97
2018-09-05T10:57:49.869Z,12.67
2018-09-05T10:59:54.182Z,7.27
2018-09-05T11:01:58.818Z,8.30
2018-09-05T11:04:03.096Z,6.57
2018-09-05T11:06:07.479Z,8.50
2018-09-05T11:08:11.716Z,6.80
2018-09-05T11:10:15.960Z,8.17
2018-09-05T11:12:27.207Z,8.00
2018-09-05T11:14:31.574Z,7.70
2018-09-05T11:16:36.319Z,5.33
2018-09-05T11:18:40.850Z,7.10
2018-09-05T11:20:46.654Z,6.87
2018-09-05T11:22:51.668Z,6.67
2018-09-05T11:24:56.251Z,7.03
2018-09-05T11:27:00.751Z,8.37
2018-09-05T11:29:05.477Z,9.27
2018-09-05T11:31:10.094Z,7.80
2018-09-05T11:33:15.599Z,8.07
2018-09-05T11:35:20.176Z,7.07
2018-09-05T11:37:24.494Z,8.10
2018-09-05T11:39:29.334Z,6.67
2018-09-05T11:41:33.885Z,6.57
2018-09-05T11:43:38.852Z,5.63
2018-09-05T11:45:43.232Z,6.17
2018-09-05T11:47:48.576Z,5.80
2018-09-05T11:49:52.820Z,5.43
2018-09-05T11:51:58.300Z,9.57
2018-09-05T11:54:02.526Z,5.73
2018-09-05T11:56:06.924Z,6.17
2018-09-05T11:58:11.792Z,5.63
2018-09-05T12:00:16.708Z,7.40
2018-09-05T12:02:22.026Z,5.20
2018-09-05T12:04:26.241Z,5.10
2018-09-05T12:06:31.686Z,6.73
2018-09-05T12:08:36.701Z,6.40
2018-09-05T12:10:41.504Z,5.27
2018-09-05T12:12:46.398Z,6.97
2018-09-05T12:14:51.336Z,8.47
2018-09-05T12:16:55.663Z,5.93
2018-09-05T12:19:00.416Z,5.50
2018-09-05T12:21:04.660Z,5.80
2018-09-05T12:23:09.389Z,8.90
2018-09-05T12:25:13.730Z,5.17
2018-09-05T12:27:18.237Z,9.47
2018-09-05T12:29:24.630Z,4.80
2018-09-05T12:31:29.230Z,7.60
2018-09-05T12:33:33.934Z,5.70
2018-09-05T12:35:38.210Z,6.97
2018-09-05T12:37:46.968Z,7.30
2018-09-05T12:39:51.513Z,5.53
2018-09-05T12:41:55.818Z,4.70
2018-09-05T12:44:00.324Z,4.33
2018-09-05T12:46:04.627Z,6.17
2018-09-05T12:48:08.863Z,7.23
2018-09-05T12:50:13.535Z,8.43
2018-09-05T12:52:18.866Z,5.37
2018-09-05T12:54:23.211Z,8.43
2018-09-05T12:56:27.966Z,9.80
2018-09-05T12:58:32.264Z,7.60
2018-09-05T13:00:36.748Z,5.57
2018-09-05T13:02:41.008Z,6.57
2018-09-05T13:04:45.417Z,6.13
2018-09-05T13:06:49.951Z,6.67
2018-09-05T13:08:54.417Z,8.23
2018-09-05T13:10:58.598Z,5.37
2018-09-05T13:13:02.824Z,6.87
2018-09-05T13:15:07.139Z,6.60
2018-09-05T13:17:11.407Z,9.17
2018-09-05T13:19:15.716Z,7.93
2018-09-05T13:21:20.135Z,7.90
2018-09-05T13:23:24.477Z,5.20
2018-09-05T13:25:28.683Z,4.73
2018-09-05T13:27:32.902Z,5.13
2018-09-05T13:29:37.185Z,5.97
2018-09-05T13:31:41.344Z,5.03
2018-09-05T13:33:45.613Z,4.80
2018-09-05T13:35:49.903Z,4.40
2018-09-05T13:37:54.115Z,4.97
2018-09-05T13:39:58.380Z,5.33
2018-09-05T13:42:02.647Z,5.37
2018-09-05T13:44:07.283Z,5.70
2018-09-05T13:46:11.968Z,4.90
2018-09-05T13:48:16.176Z,6.63
2018-09-05T13:50:20.396Z,5.20
2018-09-05T13:52:24.597Z,8.47
2018-09-05T13:54:28.838Z,9.00
2018-09-05T13:56:33.107Z,4.57
2018-09-05T13:58:37.364Z,6.27
2018-09-05T14:00:41.624Z,5.57
2018-09-05T14:02:47.223Z,5.83
2018-09-05T14:04:51.420Z,4.00
2018-09-05T14:06:55.652Z,8.80
2018-09-05T14:08:59.860Z,6.10
2018-09-05T14:11:04.052Z,5.33
2018-09-05T14:13:08.369Z,6.57
2018-09-05T14:15:12.510Z,6.07
2018-09-05T14:17:16.648Z,5.43
2018-09-05T14:19:21.083Z,4.43
2018-09-05T14:21:25.255Z,4.17
2018-09-05T14:23:29.540Z,7.80
2018-09-05T14:25:33.787Z,6.20
2018-09-05T14:27:38.146Z,5.20
2018-09-05T14:29:42.223Z,5.70
2018-09-05T14:31:46.397Z,6.10
2018-09-05T14:33:50.727Z,4.27
2018-09-05T14:35:55.909Z,5.23
2018-09-05T14:38:00.072Z,5.03
2018-09-05T14:40:04.364Z,4.77
2018-09-05T14:42:08.598Z,4.33
2018-09-05T14:44:12.856Z,4.63
2018-09-05T14:46:17.055Z,5.73
2018-09-05T14:48:21.266Z,8.20
2018-09-05T14:50:25.444Z,5.07
2018-09-05T14:52:29.690Z,3.97
2018-09-05T14:54:33.887Z,5.53
2018-09-05T14:56:38.125Z,9.37
2018-09-05T14:58:42.372Z,4.60
2018-09-05T15:00:46.651Z,4.43
2018-09-05T15:02:50.912Z,5.63
2018-09-05T15:04:55.157Z,7.17
2018-09-05T15:07:00.636Z,5.17
2018-09-05T15:09:08.575Z,5.97
2018-09-05T15:11:12.880Z,8.37
2018-09-05T15:13:17.039Z,6.50
2018-09-05T15:15:21.219Z,5.47
2018-09-05T15:17:25.413Z,4.93
2018-09-05T15:19:29.760Z,4.87
2018-09-05T15:21:34.199Z,6.03
2018-09-05T15:23:38.412Z,4.87
2018-09-05T15:25:42.768Z,4.07
2018-09-05T15:27:47.022Z,5.77
2018-09-05T15:29:51.238Z,5.90
2018-09-05T15:31:55.427Z,6.40
2018-09-05T15:33:59.678Z,6.90
2018-09-05T15:36:03.984Z,4.70
2018-09-05T15:38:08.205Z,5.00
2018-09-05T15:40:12.453Z,5.40
2018-09-05T15:42:16.682Z,7.17
2018-09-05T15:44:20.886Z,5.83
2018-09-05T15:46:25.504Z,5.07
2018-09-05T15:48:29.728Z,4.40
2018-09-05T15:50:33.925Z,7.93
2018-09-05T15:52:38.146Z,4.77
2018-09-05T15:54:43.599Z,7.87
2018-09-05T15:56:50.375Z,7.70
2018-09-05T15:58:59.328Z,7.47
2018-09-05T16:01:03.643Z,4.30
2018-09-05T16:03:07.891Z,5.17
2018-09-05T16:05:12.067Z,5.57
2018-09-05T16:07:16.297Z,4.67
2018-09-05T16:09:20.538Z,8.97
2018-09-05T16:11:24.919Z,6.07
2018-09-05T16:13:29.240Z,4.43
2018-09-05T16:15:33.982Z,4.53
2018-09-05T16:17:38.085Z,5.53
2018-09-05T16:19:42.421Z,4.23
2018-09-05T16:21:46.678Z,8.27
2018-09-05T16:23:50.863Z,6.23
2018-09-05T16:25:55.087Z,5.27
2018-09-05T16:27:59.419Z,4.10
2018-09-05T16:30:03.765Z,4.60
2018-09-05T16:32:08.056Z,5.40
2018-09-05T16:34:12.344Z,6.67
2018-09-05T16:36:16.822Z,4.83
2018-09-05T16:38:20.954Z,6.67
2018-09-05T16:40:25.152Z,6.37
2018-09-05T16:42:29.488Z,6.07
2018-09-05T16:44:33.697Z,5.47
2018-09-05T16:46:37.987Z,5.00
2018-09-05T16:48:42.270Z,4.93
2018-09-05T16:50:46.512Z,7.70
2018-09-05T16:52:50.772Z,4.67
2018-09-05T16:54:55.125Z,6.57
2018-09-05T16:56:59.586Z,5.17
2018-09-05T16:59:03.823Z,5.70
2018-09-05T17:01:08.280Z,4.03
2018-09-05T17:03:12.591Z,4.27
2018-09-05T17:05:16.822Z,5.03
2018-09-05T17:07:21.024Z,5.30
2018-09-05T17:09:25.239Z,5.57
2018-09-05T17:11:29.400Z,3.67
2018-09-05T17:13:33.638Z,5.57
2018-09-05T17:15:37.871Z,4.50
2018-09-05T17:17:42.054Z,4.50
2018-09-05T17:19:46.364Z,5.77
2018-09-05T17:21:50.610Z,7.17
2018-09-05T17:23:54.809Z,4.87
2018-09-05T17:25:59.013Z,5.20
2018-09-05T17:28:03.678Z,4.80
2018-09-05T17:30:07.986Z,4.17
2018-09-05T17:32:12.306Z,6.33
2018-09-05T17:34:16.616Z,4.60
2018-09-05T17:36:21.156Z,5.10
2018-09-05T17:38:25.406Z,5.00
2018-09-05T17:40:29.605Z,4.23
2018-09-05T17:42:34.370Z,5.43
2018-09-05T17:44:38.572Z,5.07
2018-09-05T17:46:42.800Z,8.60
2018-09-05T17:48:47.085Z,5.07
2018-09-05T17:50:51.281Z,5.33
2018-09-05T17:52:55.608Z,4.73
2018-09-05T17:54:59.909Z,5.50
2018-09-05T17:57:04.151Z,6.70
2018-09-05T17:59:08.432Z,4.83
2018-09-05T18:01:15.927Z,4.00
2018-09-05T18:03:20.183Z,6.00
2018-09-05T18:05:24.518Z,4.97
2018-09-05T18:07:28.887Z,5.13
2018-09-05T18:09:33.211Z,6.50
2018-09-05T18:11:37.507Z,5.07
2018-09-05T18:13:41.789Z,4.30
2018-09-05T18:15:46.278Z,5.33
2018-09-05T18:17:50.555Z,9.07
2018-09-05T18:19:55.024Z,4.37
2018-09-05T18:21:59.428Z,6.43
2018-09-05T18:24:03.959Z,4.67
2018-09-05T18:26:09.131Z,5.50
2018-09-05T18:28:13.972Z,4.73
2018-09-05T18:30:18.469Z,5.87
2018-09-05T18:32:22.969Z,6.20
2018-09-05T18:34:27.422Z,5.73
2018-09-05T18:36:32.094Z,5.73
2018-09-05T18:40:46.647Z,4.80
2018-09-05T18:42:51.252Z,5.80
2018-09-05T18:44:55.775Z,4.97
2018-09-05T18:47:00.311Z,6.07
2018-09-05T18:49:04.921Z,5.17
2018-09-05T18:51:09.555Z,7.37
2018-09-05T18:53:14.504Z,8.90
2018-09-05T18:55:19.088Z,4.80
2018-09-05T18:57:23.672Z,6.63
2018-09-05T18:59:28.326Z,5.90
2018-09-05T19:01:33.349Z,4.37
2018-09-05T19:03:37.975Z,5.73
2018-09-05T19:05:42.635Z,5.33
2018-09-05T19:07:47.976Z,6.80
2018-09-05T19:09:52.689Z,7.27
2018-09-05T19:11:57.293Z,6.03
2018-09-05T19:14:01.830Z,4.53
2018-09-05T19:16:06.519Z,8.47
2018-09-05T19:18:12.581Z,6.43
2018-09-05T19:20:17.637Z,5.97
2018-09-05T19:22:22.330Z,5.80
2018-09-05T19:24:27.280Z,5.83
2018-09-05T19:26:32.291Z,6.87
2018-09-05T19:28:36.920Z,5.10
2018-09-05T19:30:41.876Z,4.47
2018-09-05T19:32:46.476Z,8.17
2018-09-05T19:34:51.132Z,11.47
2018-09-05T19:36:55.820Z,12.67
2018-09-05T19:39:00.986Z,22.90
2018-09-05T19:41:06.039Z,14.70
2018-09-05T19:43:10.618Z,15.00
2018-09-05T19:45:15.229Z,15.53
2018-09-05T19:47:20.191Z,15.80
2018-09-05T19:49:24.769Z,12.67
2018-09-05T19:51:29.378Z,11.40
2018-09-05T19:53:34.023Z,10.97
2018-09-05T19:55:38.656Z,10.10
2018-09-05T19:57:43.151Z,12.07
2018-09-05T19:59:47.781Z,11.07
2018-09-05T20:01:52.542Z,10.03
2018-09-05T20:03:57.545Z,7.97
2018-09-05T20:06:03.064Z,6.70
2018-09-05T20:08:07.659Z,7.23
2018-09-05T20:10:12.916Z,11.07
2018-09-05T20:12:17.440Z,5.83
2018-09-05T20:14:23.258Z,8.17
2018-09-05T20:16:27.894Z,9.40
2018-09-05T20:18:32.426Z,5.97
2018-09-05T20:20:37.292Z,7.57
2018-09-05T20:22:41.983Z,6.40
2018-09-05T20:24:46.678Z,8.53
2018-09-05T20:26:51.270Z,9.40
2018-09-05T20:28:56.519Z,9.63
2018-09-05T20:31:01.072Z,9.47
2018-09-05T20:33:05.878Z,7.50
2018-09-05T20:35:10.375Z,5.67
2018-09-05T20:37:14.967Z,6.30
2018-09-05T20:39:19.183Z,8.33
2018-09-05T20:41:23.413Z,8.27
2018-09-05T20:43:27.936Z,11.27
2018-09-05T20:45:32.529Z,7.13
2018-09-05T20:47:37.370Z,8.13
2018-09-05T20:49:42.007Z,7.87
2018-09-05T20:51:46.624Z,7.67
2018-09-05T20:53:50.810Z,6.80
2018-09-05T20:56:03.339Z,7.07
2018-09-05T20:58:08.380Z,9.20
2018-09-05T21:00:13.788Z,7.90
2018-09-05T21:02:19.081Z,10.17
2018-09-05T21:04:24.045Z,7.13
2018-09-05T21:06:28.479Z,9.37
2018-09-05T21:08:33.236Z,7.23
2018-09-05T21:10:38.593Z,10.80
2018-09-05T21:12:43.309Z,6.50
2018-09-05T21:14:47.883Z,8.40
2018-09-05T21:16:52.305Z,6.37
2018-09-05T21:18:56.794Z,7.10
2018-09-05T21:21:01.543Z,8.57
2018-09-05T21:23:06.315Z,7.80
2018-09-05T21:25:11.197Z,7.53
2018-09-05T21:27:15.882Z,6.07
2018-09-05T21:29:20.596Z,5.37
2018-09-05T21:31:25.532Z,4.20
2018-09-05T21:33:29.821Z,5.77
2018-09-05T21:35:35.107Z,5.43
2018-09-05T21:37:39.314Z,6.37
2018-09-05T21:39:43.698Z,6.43
2018-09-05T21:41:47.962Z,5.67
2018-09-05T21:43:52.190Z,5.53
2018-09-05T21:45:56.456Z,5.03
2018-09-05T21:48:02.417Z,5.90
2018-09-05T21:50:07.388Z,7.15
2018-09-05T21:52:11.637Z,7.83
2018-09-05T21:54:15.838Z,8.27
2018-09-05T21:56:20.111Z,6.07
2018-09-05T21:58:24.338Z,9.30
2018-09-05T22:00:35.890Z,7.80
2018-09-05T22:02:45.459Z,5.87
2018-09-05T22:04:50.182Z,5.63
2018-09-05T22:06:54.470Z,7.87
2018-09-05T22:08:59.512Z,6.47
2018-09-05T22:11:08.874Z,6.77
2018-09-05T22:13:13.507Z,5.87
2018-09-05T22:15:17.900Z,5.87
2018-09-05T22:17:23.140Z,5.93
2018-09-05T22:19:27.993Z,7.33
2018-09-05T22:21:33.234Z,11.17
2018-09-05T22:23:38.068Z,9.07
2018-09-05T22:25:42.958Z,6.00
2018-09-05T22:27:49.253Z,5.23
2018-09-05T22:29:53.837Z,5.40
2018-09-05T22:31:58.607Z,5.07
2018-09-05T22:34:04.567Z,6.07
2018-09-05T22:36:08.904Z,6.40
2018-09-05T22:38:13.126Z,6.27
2018-09-05T22:40:17.286Z,4.93
2018-09-05T22:42:21.538Z,5.70
2018-09-05T22:44:36.687Z,7.63
2018-09-05T22:46:51.948Z,7.83
2018-09-05T22:49:07.114Z,6.70
2018-09-05T22:53:34.343Z,5.03
2018-09-05T22:55:58.512Z,7.03
2018-09-05T22:58:20.694Z,9.67
2018-09-05T23:00:37.051Z,9.60
2018-09-05T23:02:56.920Z,9.43
2018-09-05T23:07:21.169Z,11.70
2018-09-05T23:09:36.276Z,12.37
2018-09-05T23:11:53.494Z,9.33
2018-09-05T23:15:11.196Z,8.20
2018-09-05T23:17:26.265Z,9.47
2018-09-05T23:19:44.118Z,11.07
2018-09-05T23:21:48.812Z,11.07
2018-09-05T23:24:02.373Z,9.87
2018-09-05T23:26:06.977Z,8.57
2018-09-05T23:28:11.290Z,9.73
2018-09-05T23:30:15.941Z,9.63
2018-09-05T23:32:20.449Z,10.17
2018-09-05T23:34:25.528Z,12.17
2018-09-05T23:36:29.792Z,8.80
2018-09-05T23:38:34.488Z,8.30
2018-09-05T23:40:39.530Z,10.30
2018-09-05T23:42:43.725Z,7.23
2018-09-05T23:44:47.927Z,11.77
2018-09-05T23:46:52.330Z,10.77
2018-09-05T23:48:56.512Z,9.93
2018-09-05T23:51:01.708Z,8.97
2018-09-05T23:53:05.928Z,9.10
2018-09-05T23:55:10.212Z,10.00
2018-09-05T23:57:14.477Z,7.30
2018-09-05T23:59:18.723Z,7.63
